Aérodrome :
LOGIN :

S'inscrire | Disclaimer

   EN    FR    IT 

 










Légende :    VFR   VFR Marginal   IFR   IFR Intensif   IFR Très Intensif
Visi : 
Plafond : 
>= 8 km
>= 3000ft
5 à 8 km
1000 à 3000 ft
1500m à 5 km
500 à 1000 ft
800 à 1500m
200 à 500 ft
< 800m
< 200 ft
Symboles :   Orages  Brouillard  Fortes neiges  Fortes précipitations  Vent > 20 kt
SIGMETs :   Divers  Orages  Givrage  Turbulence  Onde Orograph.  Cendres Volcan.






- Altitude de l'aérodrome : 14 ft
- Code IATA : BRE


EDDW - Bremen Neuenland

DERNIER METAR :
  • 191120Z 10005KT 070V140 9999 SCT019 12/07 Q1021 NOSIG

METARs EXPIRÉS :
  • 191050Z 09005KT 060V130 9999 SCT017 12/07 Q1022 NOSIG
  • 191020Z 10004KT 070V160 9999 BKN015 11/07 Q1022 NOSIG
  • 190950Z 07005KT 020V130 9999 BKN014 11/07 Q1022 BECMG SCT025
  • 190920Z 10005KT 070V130 9999 BKN012 10/06 Q1022 BECMG SCT012
  • 190850Z 10005KT 050V140 9999 BKN011 09/06 Q1022 BECMG SCT012
  • 190820Z 09005KT 050V140 9999 BKN007 09/06 Q1022 BECMG SCT012

TAF COR TAF EDDW
Valide du 19 à 06h jusqu'au 20 à 06h UTC


190525Z 1906/2006 09006KT 6000 BKN006
BECMG 1906/1908 BKN010
FM190930 09008KT 9999 SCT025
TEMPO 1917/2006 04003KT



MET'MAP, la Météo Aéronautique d'un coup d'oeil ! - Copyright ORBIFLY Décembre 2007 - Disclaimer

ORBIFLY MET'MAP TEAM :

Programmation & Développement : Alexandra Zaïnal
Sur une idée originale de : Baudouin d'Aumeries
Assistance à la programmation : Marc-Olivier Méhu
Soutien technique & logistique : Manuel Goepfert

Contact : metmap@orbifly.com




SOURCES & CREDITS :

   NOAA